sensor_id;sensor_type;location;lat;lon;timestamp;P1;durP1;ratioP1;P2;durP2;ratioP2
78781;SDS011;68126;55.748;48.742;2023-06-22T00:03:47;2.77;;;1.50;;
78781;SDS011;68126;55.748;48.742;2023-06-22T00:09:12;3.62;;;3.33;;
78781;SDS011;68126;55.748;48.742;2023-06-22T00:14:37;2.45;;;1.30;;
78781;SDS011;68126;55.748;48.742;2023-06-22T00:20:02;3.12;;;2.33;;
78781;SDS011;68126;55.748;48.742;2023-06-22T00:25:28;2.67;;;1.70;;
78781;SDS011;68126;55.748;48.742;2023-06-22T00:36:37;4.10;;;1.62;;
78781;SDS011;68126;55.748;48.742;2023-06-22T00:42:03;2.17;;;1.32;;
78781;SDS011;68126;55.748;48.742;2023-06-22T00:48:01;2.33;;;1.42;;
78781;SDS011;68126;55.748;48.742;2023-06-22T00:52:55;2.62;;;1.82;;
78781;SDS011;68126;55.748;48.742;2023-06-22T00:58:21;3.17;;;1.62;;
78781;SDS011;68126;55.748;48.742;2023-06-22T01:03:47;2.77;;;1.57;;
78781;SDS011;68126;55.748;48.742;2023-06-22T01:09:15;3.15;;;1.52;;
78781;SDS011;68126;55.748;48.742;2023-06-22T01:20:23;3.22;;;1.45;;
78781;SDS011;68126;55.748;48.742;2023-06-22T01:31:36;2.90;;;1.62;;
78781;SDS011;68126;55.748;48.742;2023-06-22T01:37:00;2.92;;;1.22;;
78781;SDS011;68126;55.748;48.742;2023-06-22T01:42:28;2.42;;;1.47;;
78781;SDS011;68126;55.748;48.742;2023-06-22T01:47:53;3.62;;;1.75;;
78781;SDS011;68126;55.748;48.742;2023-06-22T01:53:20;2.30;;;1.35;;
78781;SDS011;68126;55.748;48.742;2023-06-22T01:59:17;2.75;;;1.62;;
78781;SDS011;68126;55.748;48.742;2023-06-22T02:09:56;4.00;;;1.42;;
78781;SDS011;68126;55.748;48.742;2023-06-22T02:15:21;2.67;;;1.40;;
78781;SDS011;68126;55.748;48.742;2023-06-22T02:20:45;1.65;;;0.98;;
78781;SDS011;68126;55.748;48.742;2023-06-22T02:26:10;3.98;;;2.70;;
78781;SDS011;68126;55.748;48.742;2023-06-22T02:31:35;2.33;;;1.62;;
78781;SDS011;68126;55.748;48.742;2023-06-22T02:37:00;2.15;;;1.47;;
78781;SDS011;68126;55.748;48.742;2023-06-22T02:42:25;3.55;;;2.77;;
78781;SDS011;68126;55.748;48.742;2023-06-22T02:47:49;2.98;;;1.80;;
78781;SDS011;68126;55.748;48.742;2023-06-22T02:53:14;5.58;;;1.65;;
78781;SDS011;68126;55.748;48.742;2023-06-22T02:58:41;2.58;;;1.72;;
78781;SDS011;68126;55.748;48.742;2023-06-22T03:04:06;3.37;;;1.65;;
78781;SDS011;68126;55.748;48.742;2023-06-22T03:09:31;2.95;;;1.95;;
78781;SDS011;68126;55.748;48.742;2023-06-22T03:15:16;2.95;;;1.67;;
78781;SDS011;68126;55.748;48.742;2023-06-22T03:20:41;5.33;;;1.60;;
78781;SDS011;68126;55.748;48.742;2023-06-22T03:26:40;2.83;;;1.60;;
78781;SDS011;68126;55.748;48.742;2023-06-22T03:31:34;3.25;;;1.35;;
78781;SDS011;68126;55.748;48.742;2023-06-22T03:36:59;3.55;;;1.80;;
78781;SDS011;68126;55.748;48.742;2023-06-22T03:42:23;3.15;;;1.75;;
78781;SDS011;68126;55.748;48.742;2023-06-22T03:47:48;5.03;;;2.52;;
78781;SDS011;68126;55.748;48.742;2023-06-22T03:53:13;3.05;;;2.17;;
78781;SDS011;68126;55.748;48.742;2023-06-22T03:58:37;2.98;;;1.95;;
78781;SDS011;68126;55.748;48.742;2023-06-22T04:04:04;2.70;;;1.50;;
78781;SDS011;68126;55.748;48.742;2023-06-22T04:09:28;3.10;;;1.92;;
78781;SDS011;68126;55.748;48.742;2023-06-22T04:14:53;3.17;;;1.90;;
78781;SDS011;68126;55.748;48.742;2023-06-22T04:20:18;2.95;;;1.67;;
78781;SDS011;68126;55.748;48.742;2023-06-22T04:25:43;3.37;;;2.83;;
78781;SDS011;68126;55.748;48.742;2023-06-22T04:31:08;3.35;;;1.70;;
78781;SDS011;68126;55.748;48.742;2023-06-22T04:42:17;4.15;;;2.20;;
78781;SDS011;68126;55.748;48.742;2023-06-22T04:47:42;8.80;;;1.60;;
78781;SDS011;68126;55.748;48.742;2023-06-22T04:53:07;2.77;;;1.62;;
78781;SDS011;68126;55.748;48.742;2023-06-22T04:58:34;5.58;;;1.77;;
78781;SDS011;68126;55.748;48.742;2023-06-22T05:03:59;3.30;;;1.65;;
78781;SDS011;68126;55.748;48.742;2023-06-22T05:09:25;8.83;;;1.92;;
78781;SDS011;68126;55.748;48.742;2023-06-22T05:14:49;2.12;;;1.30;;
78781;SDS011;68126;55.748;48.742;2023-06-22T05:20:14;3.55;;;1.70;;
78781;SDS011;68126;55.748;48.742;2023-06-22T05:25:40;3.85;;;1.75;;
78781;SDS011;68126;55.748;48.742;2023-06-22T05:31:04;4.17;;;1.92;;
78781;SDS011;68126;55.748;48.742;2023-06-22T05:36:29;3.22;;;1.77;;
78781;SDS011;68126;55.748;48.742;2023-06-22T05:41:54;3.00;;;1.70;;
78781;SDS011;68126;55.748;48.742;2023-06-22T05:47:19;2.30;;;1.30;;
78781;SDS011;68126;55.748;48.742;2023-06-22T05:52:44;2.72;;;1.82;;
78781;SDS011;68126;55.748;48.742;2023-06-22T05:58:09;4.20;;;1.25;;
78781;SDS011;68126;55.748;48.742;2023-06-22T06:03:35;1.60;;;0.98;;
78781;SDS011;68126;55.748;48.742;2023-06-22T06:09:37;2.85;;;1.77;;
78781;SDS011;68126;55.748;48.742;2023-06-22T06:14:29;3.08;;;1.22;;
78781;SDS011;68126;55.748;48.742;2023-06-22T06:19:54;2.40;;;1.42;;
78781;SDS011;68126;55.748;48.742;2023-06-22T06:25:19;4.50;;;1.90;;
78781;SDS011;68126;55.748;48.742;2023-06-22T06:30:44;4.05;;;2.02;;
78781;SDS011;68126;55.748;48.742;2023-06-22T06:36:09;5.87;;;1.80;;
78781;SDS011;68126;55.748;48.742;2023-06-22T06:41:34;4.95;;;1.92;;
78781;SDS011;68126;55.748;48.742;2023-06-22T06:46:59;4.45;;;2.52;;
78781;SDS011;68126;55.748;48.742;2023-06-22T06:52:23;3.75;;;2.27;;
78781;SDS011;68126;55.748;48.742;2023-06-22T06:57:48;3.30;;;1.85;;
78781;SDS011;68126;55.748;48.742;2023-06-22T07:03:14;7.20;;;2.27;;
78781;SDS011;68126;55.748;48.742;2023-06-22T07:08:41;3.60;;;1.98;;
78781;SDS011;68126;55.748;48.742;2023-06-22T07:14:06;4.95;;;1.82;;
78781;SDS011;68126;55.748;48.742;2023-06-22T07:19:32;5.05;;;2.65;;
78781;SDS011;68126;55.748;48.742;2023-06-22T07:24:57;3.42;;;2.15;;
78781;SDS011;68126;55.748;48.742;2023-06-22T07:30:21;4.70;;;2.37;;
78781;SDS011;68126;55.748;48.742;2023-06-22T07:35:46;3.87;;;2.55;;
78781;SDS011;68126;55.748;48.742;2023-06-22T07:41:13;4.42;;;2.10;;
78781;SDS011;68126;55.748;48.742;2023-06-22T07:46:38;3.75;;;2.42;;
78781;SDS011;68126;55.748;48.742;2023-06-22T07:52:03;8.28;;;3.58;;
78781;SDS011;68126;55.748;48.742;2023-06-22T07:57:28;13.03;;;3.45;;
78781;SDS011;68126;55.748;48.742;2023-06-22T08:03:13;6.08;;;2.98;;
78781;SDS011;68126;55.748;48.742;2023-06-22T08:08:38;6.35;;;3.35;;
78781;SDS011;68126;55.748;48.742;2023-06-22T08:14:03;4.65;;;2.95;;
78781;SDS011;68126;55.748;48.742;2023-06-22T08:19:27;4.15;;;2.72;;
78781;SDS011;68126;55.748;48.742;2023-06-22T08:24:52;5.20;;;2.98;;
78781;SDS011;68126;55.748;48.742;2023-06-22T08:30:19;5.30;;;2.47;;
78781;SDS011;68126;55.748;48.742;2023-06-22T08:35:43;4.40;;;2.60;;
78781;SDS011;68126;55.748;48.742;2023-06-22T08:41:08;6.35;;;3.40;;
78781;SDS011;68126;55.748;48.742;2023-06-22T08:46:35;5.37;;;2.42;;
78781;SDS011;68126;55.748;48.742;2023-06-22T08:52:01;5.33;;;3.42;;
78781;SDS011;68126;55.748;48.742;2023-06-22T08:58:01;4.30;;;2.37;;
78781;SDS011;68126;55.748;48.742;2023-06-22T09:02:54;3.35;;;2.55;;
78781;SDS011;68126;55.748;48.742;2023-06-22T09:08:20;5.97;;;2.65;;
78781;SDS011;68126;55.748;48.742;2023-06-22T09:13:45;5.12;;;3.25;;
78781;SDS011;68126;55.748;48.742;2023-06-22T09:19:10;4.95;;;2.65;;
78781;SDS011;68126;55.748;48.742;2023-06-22T09:30:01;4.53;;;2.65;;
78781;SDS011;68126;55.748;48.742;2023-06-22T09:35:27;4.00;;;2.62;;
78781;SDS011;68126;55.748;48.742;2023-06-22T09:40:52;5.50;;;2.77;;
78781;SDS011;68126;55.748;48.742;2023-06-22T09:46:17;4.12;;;2.58;;
78781;SDS011;68126;55.748;48.742;2023-06-22T09:51:43;4.80;;;2.33;;
78781;SDS011;68126;55.748;48.742;2023-06-22T09:57:08;4.00;;;2.30;;
78781;SDS011;68126;55.748;48.742;2023-06-22T10:02:33;4.75;;;2.98;;
78781;SDS011;68126;55.748;48.742;2023-06-22T10:07:58;4.10;;;2.65;;
78781;SDS011;68126;55.748;48.742;2023-06-22T10:13:22;4.40;;;3.00;;
78781;SDS011;68126;55.748;48.742;2023-06-22T10:18:47;4.60;;;2.98;;
78781;SDS011;68126;55.748;48.742;2023-06-22T10:24:12;3.92;;;2.72;;
78781;SDS011;68126;55.748;48.742;2023-06-22T10:29:37;5.33;;;3.22;;
78781;SDS011;68126;55.748;48.742;2023-06-22T10:35:02;4.58;;;2.98;;
78781;SDS011;68126;55.748;48.742;2023-06-22T10:40:28;5.47;;;2.47;;
78781;SDS011;68126;55.748;48.742;2023-06-22T10:45:53;3.45;;;2.40;;
78781;SDS011;68126;55.748;48.742;2023-06-22T10:51:17;4.83;;;3.60;;
78781;SDS011;68126;55.748;48.742;2023-06-22T10:56:42;4.15;;;3.08;;
78781;SDS011;68126;55.748;48.742;2023-06-22T11:02:07;3.15;;;2.40;;
78781;SDS011;68126;55.748;48.742;2023-06-22T11:07:32;4.22;;;2.67;;
78781;SDS011;68126;55.748;48.742;2023-06-22T11:12:57;4.33;;;3.58;;
78781;SDS011;68126;55.748;48.742;2023-06-22T11:18:21;10.95;;;3.12;;
78781;SDS011;68126;55.748;48.742;2023-06-22T11:23:46;5.00;;;3.40;;
78781;SDS011;68126;55.748;48.742;2023-06-22T11:29:12;3.42;;;2.67;;
78781;SDS011;68126;55.748;48.742;2023-06-22T11:34:37;4.42;;;3.15;;
78781;SDS011;68126;55.748;48.742;2023-06-22T11:40:02;4.85;;;3.35;;
78781;SDS011;68126;55.748;48.742;2023-06-22T11:45:29;5.03;;;3.25;;
78781;SDS011;68126;55.748;48.742;2023-06-22T11:50:53;4.65;;;3.27;;
78781;SDS011;68126;55.748;48.742;2023-06-22T11:56:20;4.30;;;2.67;;
78781;SDS011;68126;55.748;48.742;2023-06-22T12:01:45;5.15;;;3.22;;
78781;SDS011;68126;55.748;48.742;2023-06-22T12:07:44;5.53;;;3.45;;
78781;SDS011;68126;55.748;48.742;2023-06-22T12:12:58;4.45;;;3.12;;
78781;SDS011;68126;55.748;48.742;2023-06-22T12:18:23;5.75;;;3.00;;
78781;SDS011;68126;55.748;48.742;2023-06-22T12:23:48;5.17;;;3.17;;
78781;SDS011;68126;55.748;48.742;2023-06-22T12:29:12;4.80;;;3.30;;
78781;SDS011;68126;55.748;48.742;2023-06-22T12:34:37;5.20;;;3.35;;
78781;SDS011;68126;55.748;48.742;2023-06-22T12:40:02;5.05;;;2.50;;
78781;SDS011;68126;55.748;48.742;2023-06-22T12:45:27;4.37;;;3.00;;
78781;SDS011;68126;55.748;48.742;2023-06-22T12:50:54;5.05;;;2.22;;
78781;SDS011;68126;55.748;48.742;2023-06-22T12:56:18;2.35;;;1.25;;
78781;SDS011;68126;55.748;48.742;2023-06-22T13:01:43;5.37;;;2.90;;
78781;SDS011;68126;55.748;48.742;2023-06-22T13:07:08;4.15;;;1.95;;
78781;SDS011;68126;55.748;48.742;2023-06-22T13:12:33;4.90;;;2.17;;
78781;SDS011;68126;55.748;48.742;2023-06-22T13:17:58;4.17;;;2.02;;
78781;SDS011;68126;55.748;48.742;2023-06-22T13:23:23;2.30;;;1.70;;
78781;SDS011;68126;55.748;48.742;2023-06-22T13:28:47;3.22;;;2.22;;
78781;SDS011;68126;55.748;48.742;2023-06-22T13:34:12;7.15;;;2.17;;
78781;SDS011;68126;55.748;48.742;2023-06-22T13:39:37;2.08;;;1.62;;
78781;SDS011;68126;55.748;48.742;2023-06-22T13:45:02;2.77;;;2.08;;
78781;SDS011;68126;55.748;48.742;2023-06-22T13:50:28;3.22;;;2.92;;
78781;SDS011;68126;55.748;48.742;2023-06-22T14:01:17;3.62;;;2.87;;
78781;SDS011;68126;55.748;48.742;2023-06-22T14:06:41;3.58;;;2.87;;
78781;SDS011;68126;55.748;48.742;2023-06-22T14:12:06;4.75;;;3.20;;
78781;SDS011;68126;55.748;48.742;2023-06-22T14:17:31;5.60;;;3.20;;
78781;SDS011;68126;55.748;48.742;2023-06-22T14:22:56;3.65;;;2.98;;
78781;SDS011;68126;55.748;48.742;2023-06-22T14:28:21;4.65;;;3.60;;
78781;SDS011;68126;55.748;48.742;2023-06-22T14:33:46;3.92;;;2.83;;
78781;SDS011;68126;55.748;48.742;2023-06-22T14:39:12;5.60;;;2.90;;
78781;SDS011;68126;55.748;48.742;2023-06-22T14:44:36;5.62;;;3.00;;
78781;SDS011;68126;55.748;48.742;2023-06-22T14:50:01;3.80;;;2.72;;
78781;SDS011;68126;55.748;48.742;2023-06-22T14:55:27;4.47;;;2.65;;
78781;SDS011;68126;55.748;48.742;2023-06-22T15:00:52;5.80;;;2.85;;
78781;SDS011;68126;55.748;48.742;2023-06-22T15:06:17;4.65;;;3.72;;
78781;SDS011;68126;55.748;48.742;2023-06-22T15:11:41;5.35;;;2.67;;
78781;SDS011;68126;55.748;48.742;2023-06-22T15:17:06;3.98;;;3.10;;
78781;SDS011;68126;55.748;48.742;2023-06-22T15:22:31;4.90;;;2.90;;
78781;SDS011;68126;55.748;48.742;2023-06-22T15:28:00;3.60;;;2.58;;
78781;SDS011;68126;55.748;48.742;2023-06-22T15:33:25;3.90;;;2.65;;
78781;SDS011;68126;55.748;48.742;2023-06-22T15:38:49;3.50;;;2.50;;
78781;SDS011;68126;55.748;48.742;2023-06-22T15:44:14;3.98;;;2.33;;
78781;SDS011;68126;55.748;48.742;2023-06-22T15:49:39;3.72;;;2.58;;
78781;SDS011;68126;55.748;48.742;2023-06-22T15:55:04;3.02;;;2.12;;
78781;SDS011;68126;55.748;48.742;2023-06-22T16:00:31;3.67;;;2.37;;
78781;SDS011;68126;55.748;48.742;2023-06-22T16:05:56;3.65;;;2.70;;
78781;SDS011;68126;55.748;48.742;2023-06-22T16:11:21;3.98;;;2.50;;
78781;SDS011;68126;55.748;48.742;2023-06-22T16:16:45;5.50;;;2.80;;
78781;SDS011;68126;55.748;48.742;2023-06-22T16:22:10;4.10;;;2.58;;
78781;SDS011;68126;55.748;48.742;2023-06-22T16:27:35;4.70;;;2.60;;
78781;SDS011;68126;55.748;48.742;2023-06-22T16:33:00;5.12;;;2.98;;
78781;SDS011;68126;55.748;48.742;2023-06-22T16:38:25;5.03;;;2.98;;
78781;SDS011;68126;55.748;48.742;2023-06-22T16:43:51;6.60;;;2.37;;
78781;SDS011;68126;55.748;48.742;2023-06-22T16:49:16;3.75;;;2.08;;
78781;SDS011;68126;55.748;48.742;2023-06-22T16:54:41;3.60;;;2.40;;
78781;SDS011;68126;55.748;48.742;2023-06-22T17:00:12;5.58;;;3.50;;
78781;SDS011;68126;55.748;48.742;2023-06-22T17:05:37;5.28;;;2.62;;
78781;SDS011;68126;55.748;48.742;2023-06-22T17:11:02;4.15;;;2.50;;
78781;SDS011;68126;55.748;48.742;2023-06-22T17:16:29;5.25;;;2.58;;
78781;SDS011;68126;55.748;48.742;2023-06-22T17:21:54;4.78;;;2.58;;
78781;SDS011;68126;55.748;48.742;2023-06-22T17:33:09;5.25;;;2.72;;
78781;SDS011;68126;55.748;48.742;2023-06-22T17:44:00;5.70;;;3.35;;
78781;SDS011;68126;55.748;48.742;2023-06-22T17:55:09;8.38;;;4.10;;
78781;SDS011;68126;55.748;48.742;2023-06-22T18:00:35;5.50;;;3.12;;
78781;SDS011;68126;55.748;48.742;2023-06-22T18:05:59;5.37;;;3.37;;
78781;SDS011;68126;55.748;48.742;2023-06-22T18:17:29;4.55;;;2.70;;
78781;SDS011;68126;55.748;48.742;2023-06-22T18:22:54;4.20;;;2.58;;
78781;SDS011;68126;55.748;48.742;2023-06-22T18:28:19;8.00;;;3.42;;
78781;SDS011;68126;55.748;48.742;2023-06-22T18:33:44;4.97;;;2.92;;
78781;SDS011;68126;55.748;48.742;2023-06-22T18:44:35;5.72;;;3.60;;
78781;SDS011;68126;55.748;48.742;2023-06-22T18:55:49;4.67;;;2.90;;
78781;SDS011;68126;55.748;48.742;2023-06-22T19:06:58;6.08;;;3.22;;
78781;SDS011;68126;55.748;48.742;2023-06-22T19:12:23;5.75;;;3.20;;
78781;SDS011;68126;55.748;48.742;2023-06-22T19:17:48;8.23;;;3.52;;
78781;SDS011;68126;55.748;48.742;2023-06-22T19:29:00;8.83;;;4.45;;
78781;SDS011;68126;55.748;48.742;2023-06-22T19:34:25;7.85;;;4.10;;
78781;SDS011;68126;55.748;48.742;2023-06-22T19:39:51;8.53;;;4.33;;
78781;SDS011;68126;55.748;48.742;2023-06-22T19:45:16;7.30;;;4.12;;
78781;SDS011;68126;55.748;48.742;2023-06-22T19:50:41;9.65;;;5.25;;
78781;SDS011;68126;55.748;48.742;2023-06-22T19:56:06;9.68;;;5.42;;
78781;SDS011;68126;55.748;48.742;2023-06-22T20:01:30;8.85;;;4.20;;
78781;SDS011;68126;55.748;48.742;2023-06-22T20:12:40;7.45;;;4.20;;
78781;SDS011;68126;55.748;48.742;2023-06-22T20:18:05;6.80;;;4.05;;
78781;SDS011;68126;55.748;48.742;2023-06-22T20:23:30;8.48;;;4.50;;
78781;SDS011;68126;55.748;48.742;2023-06-22T20:28:56;6.08;;;4.08;;
78781;SDS011;68126;55.748;48.742;2023-06-22T20:34:21;6.90;;;4.22;;
78781;SDS011;68126;55.748;48.742;2023-06-22T20:39:45;6.12;;;3.60;;
78781;SDS011;68126;55.748;48.742;2023-06-22T20:45:10;6.35;;;3.58;;
78781;SDS011;68126;55.748;48.742;2023-06-22T20:50:35;7.67;;;5.72;;
78781;SDS011;68126;55.748;48.742;2023-06-22T20:56:00;6.55;;;4.17;;
78781;SDS011;68126;55.748;48.742;2023-06-22T21:01:25;8.80;;;4.45;;
78781;SDS011;68126;55.748;48.742;2023-06-22T21:06:51;9.63;;;6.25;;
78781;SDS011;68126;55.748;48.742;2023-06-22T21:12:16;7.87;;;4.65;;
78781;SDS011;68126;55.748;48.742;2023-06-22T21:17:41;11.33;;;5.53;;
78781;SDS011;68126;55.748;48.742;2023-06-22T21:28:32;12.07;;;6.42;;
78781;SDS011;68126;55.748;48.742;2023-06-22T21:33:57;10.43;;;6.08;;
78781;SDS011;68126;55.748;48.742;2023-06-22T21:39:22;11.20;;;5.22;;
78781;SDS011;68126;55.748;48.742;2023-06-22T21:44:46;11.90;;;7.17;;
78781;SDS011;68126;55.748;48.742;2023-06-22T21:50:11;11.83;;;6.30;;
78781;SDS011;68126;55.748;48.742;2023-06-22T21:55:36;9.33;;;6.08;;
78781;SDS011;68126;55.748;48.742;2023-06-22T22:01:01;9.63;;;5.55;;
78781;SDS011;68126;55.748;48.742;2023-06-22T22:06:26;10.90;;;6.35;;
78781;SDS011;68126;55.748;48.742;2023-06-22T22:11:50;10.65;;;8.48;;
78781;SDS011;68126;55.748;48.742;2023-06-22T22:17:15;11.10;;;6.35;;
78781;SDS011;68126;55.748;48.742;2023-06-22T22:22:40;14.33;;;6.12;;
78781;SDS011;68126;55.748;48.742;2023-06-22T22:28:05;12.28;;;7.37;;
78781;SDS011;68126;55.748;48.742;2023-06-22T22:44:21;12.10;;;6.83;;
78781;SDS011;68126;55.748;48.742;2023-06-22T22:49:46;14.73;;;7.85;;
78781;SDS011;68126;55.748;48.742;2023-06-22T22:55:11;13.93;;;7.85;;
78781;SDS011;68126;55.748;48.742;2023-06-22T23:00:35;12.10;;;7.33;;
78781;SDS011;68126;55.748;48.742;2023-06-22T23:06:00;11.00;;;7.35;;
78781;SDS011;68126;55.748;48.742;2023-06-22T23:11:25;10.90;;;6.75;;
78781;SDS011;68126;55.748;48.742;2023-06-22T23:16:50;13.08;;;7.47;;
78781;SDS011;68126;55.748;48.742;2023-06-22T23:22:16;11.18;;;6.85;;
78781;SDS011;68126;55.748;48.742;2023-06-22T23:27:41;10.85;;;6.47;;
78781;SDS011;68126;55.748;48.742;2023-06-22T23:33:06;12.13;;;6.65;;
78781;SDS011;68126;55.748;48.742;2023-06-22T23:38:31;12.70;;;7.83;;
78781;SDS011;68126;55.748;48.742;2023-06-22T23:43:56;11.43;;;7.28;;
78781;SDS011;68126;55.748;48.742;2023-06-22T23:49:21;12.63;;;7.70;;
78781;SDS011;68126;55.748;48.742;2023-06-22T23:54:46;10.88;;;6.70;;
